createdAt,value
2023-01-01T00:01:40.252Z,97638.47
2023-01-01T00:04:10.324Z,97649.25
2023-01-01T00:06:36.882Z,97639.28
2023-01-01T00:09:21.811Z,97634.47
2023-01-01T00:11:48.347Z,97640.84
2023-01-01T00:14:14.879Z,97640.06
2023-01-01T00:16:41.505Z,97641.63
2023-01-01T00:19:08.090Z,97643.56
2023-01-01T00:21:34.657Z,97646.75
2023-01-01T00:24:01.212Z,97640.06
2023-01-01T00:26:32.811Z,97650.38
2023-01-01T00:29:01.997Z,97644.06
2023-01-01T00:31:28.533Z,97646.03
2023-01-01T00:33:55.309Z,97633.66
2023-01-01T00:36:22.844Z,97634.47
2023-01-01T00:38:49.401Z,97637.66
2023-01-01T00:41:16.048Z,97642.34
2023-01-01T00:43:42.641Z,97632.84
2023-01-01T00:46:09.329Z,97640.84
2023-01-01T00:48:35.897Z,97630.53
2023-01-01T00:51:02.450Z,97630.47
2023-01-01T00:53:29.013Z,97644.03
2023-01-01T00:55:56.400Z,97643.25
2023-01-01T00:58:23.929Z,97656.03
2023-01-01T01:00:51.164Z,97648.78
2023-01-01T01:03:29.513Z,97648.38
2023-01-01T01:06:04.978Z,97642.47
2023-01-01T01:08:34.067Z,97638.09
2023-01-01T01:11:11.814Z,97643.69
2023-01-01T01:13:38.273Z,97656.06
2023-01-01T01:16:31.831Z,97665.59
2023-01-01T01:19:00.220Z,97656.44
2023-01-01T01:21:27.528Z,97656.44
2023-01-01T01:23:54.288Z,97657.59
2023-01-01T01:26:22.730Z,97662.41
2023-01-01T01:28:50.265Z,97659.19
2023-01-01T01:31:17.805Z,97648.03
2023-01-01T01:33:44.600Z,97645.66
2023-01-01T01:36:11.183Z,97667.22
2023-01-01T01:38:37.750Z,97663.16
2023-01-01T01:41:04.446Z,97667.16
2023-01-01T01:43:30.783Z,97658.81
2023-01-01T01:45:59.027Z,97662.00
2023-01-01T01:48:25.506Z,97662.41
2023-01-01T01:50:52.731Z,97663.63
2023-01-01T01:53:27.158Z,97662.41
2023-01-01T01:55:59.333Z,97659.09
2023-01-01T01:58:26.323Z,97669.50
2023-01-01T02:00:52.846Z,97670.28
2023-01-01T02:03:22.599Z,97675.78
2023-01-01T02:05:49.288Z,97686.56
2023-01-01T02:08:15.859Z,97685.41
2023-01-01T02:10:42.711Z,97680.19
2023-01-01T02:13:09.653Z,97692.97
2023-01-01T02:16:02.351Z,97681.38
2023-01-01T02:19:07.733Z,97701.63
2023-01-01T02:21:56.024Z,97675.75
2023-01-01T02:24:43.811Z,97701.13
2023-01-01T02:27:30.482Z,97674.97
2023-01-01T02:30:01.159Z,97687.78
2023-01-01T02:32:55.016Z,97687.00
2023-01-01T02:35:36.100Z,97686.25
2023-01-01T02:38:14.569Z,97684.63
2023-01-01T02:40:48.766Z,97684.31
2023-01-01T02:43:17.891Z,97679.94
2023-01-01T02:45:48.184Z,97672.78
2023-01-01T02:48:49.643Z,97685.94
2023-01-01T02:51:42.291Z,97690.63
2023-01-01T02:54:11.052Z,97673.59
2023-01-01T02:56:54.282Z,97673.97
2023-01-01T02:59:49.031Z,97669.50
2023-01-01T03:02:36.891Z,97657.94
2023-01-01T03:05:12.304Z,97666.38
2023-01-01T03:07:45.404Z,97674.75
2023-01-01T03:10:15.358Z,97662.78
2023-01-01T03:12:45.608Z,97664.78
2023-01-01T03:15:14.860Z,97673.47
2023-01-01T03:17:53.238Z,97674.69
2023-01-01T03:20:22.850Z,97647.91
2023-01-01T03:22:49.797Z,97675.06
2023-01-01T03:25:24.146Z,97672.69
2023-01-01T03:27:57.340Z,97664.41
2023-01-01T03:30:23.851Z,97668.78
2023-01-01T03:33:00.291Z,97667.47
2023-01-01T03:35:30.443Z,97675.44
2023-01-01T03:37:56.903Z,97675.81
2023-01-01T03:40:23.444Z,97655.09
2023-01-01T03:42:59.228Z,97676.59
2023-01-01T03:45:28.420Z,97665.78
2023-01-01T03:47:55.343Z,97674.19
2023-01-01T03:50:30.050Z,97679.75
2023-01-01T03:52:59.377Z,97688.09
2023-01-01T03:55:31.691Z,97680.97
2023-01-01T03:58:15.281Z,97694.91
2023-01-01T04:00:53.952Z,97695.28
2023-01-01T04:03:24.347Z,97678.56
2023-01-01T04:05:50.902Z,97705.59
2023-01-01T04:08:17.423Z,97693.22
2023-01-01T04:10:46.305Z,97708.00
2023-01-01T04:13:13.173Z,97710.69
2023-01-01T04:15:39.648Z,97714.97
2023-01-01T04:18:06.192Z,97718.25
2023-01-01T04:20:32.856Z,97713.47
2023-01-01T04:23:00.021Z,97709.16
2023-01-01T04:25:26.948Z,97713.88
2023-01-01T04:27:53.444Z,97709.97
2023-01-01T04:30:20.035Z,97716.25
2023-01-01T04:32:46.493Z,97727.75
2023-01-01T04:35:14.004Z,97729.34
2023-01-01T04:37:41.547Z,97718.50
2023-01-01T04:40:08.672Z,97726.03
2023-01-01T04:42:35.200Z,97717.41
2023-01-01T04:45:01.691Z,97721.34
2023-01-01T04:47:28.170Z,97734.47
2023-01-01T04:49:54.768Z,97725.72
2023-01-01T04:52:21.466Z,97722.97
2023-01-01T04:54:47.945Z,97731.34
2023-01-01T04:57:14.491Z,97741.75
2023-01-01T04:59:41.178Z,97735.41
2023-01-01T05:02:07.721Z,97752.63
2023-01-01T05:04:34.319Z,97738.56
2023-01-01T05:07:00.841Z,97748.13
2023-01-01T05:09:27.312Z,97739.00
2023-01-01T05:11:55.426Z,97755.72
2023-01-01T05:14:21.914Z,97753.25
2023-01-01T05:16:48.424Z,97742.94
2023-01-01T05:19:15.168Z,97751.22
2023-01-01T05:21:41.692Z,97745.66
2023-01-01T05:24:09.404Z,97755.16
2023-01-01T05:26:37.667Z,97762.38
2023-01-01T05:29:06.751Z,97770.00
2023-01-01T05:31:35.697Z,97774.31
2023-01-01T05:36:32.042Z,97762.88
2023-01-01T05:38:58.507Z,97777.97
2023-01-01T05:41:25.001Z,97781.88
2023-01-01T05:43:51.619Z,97785.53
2023-01-01T05:46:19.711Z,97788.66
2023-01-01T05:48:46.509Z,97791.13
2023-01-01T05:51:14.545Z,97799.84
2023-01-01T05:53:41.016Z,97810.69
2023-01-01T05:56:07.707Z,97818.56
2023-01-01T05:58:34.733Z,97815.03
2023-01-01T06:01:18.299Z,97804.63
2023-01-01T06:03:45.271Z,97804.28
2023-01-01T06:06:13.187Z,97807.69
2023-01-01T06:08:39.950Z,97790.19
2023-01-01T06:11:07.693Z,97814.91
2023-01-01T06:13:34.516Z,97810.97
2023-01-01T06:16:01.621Z,97808.41
2023-01-01T06:18:33.277Z,97812.47
2023-01-01T06:21:13.378Z,97830.50
2023-01-01T06:23:39.891Z,97820.47
2023-01-01T06:26:16.816Z,97833.72
2023-01-01T06:28:43.536Z,97836.94
2023-01-01T06:31:12.403Z,97837.00
2023-01-01T06:33:39.272Z,97851.38
2023-01-01T06:36:07.774Z,97852.97
2023-01-01T06:38:35.432Z,97857.06
2023-01-01T06:41:03.651Z,97867.91
2023-01-01T06:43:31.052Z,97863.00
2023-01-01T06:46:05.154Z,97851.78
2023-01-01T06:48:32.496Z,97851.44
2023-01-01T06:50:59.345Z,97841.94
2023-01-01T06:53:26.197Z,97844.81
2023-01-01T06:55:57.099Z,97854.31
2023-01-01T06:58:24.058Z,97864.66
2023-01-01T07:00:50.529Z,97883.69
2023-01-01T07:03:17.039Z,97881.28
2023-01-01T07:05:43.577Z,97878.03
2023-01-01T07:08:10.095Z,97877.28
2023-01-01T07:10:36.580Z,97877.13
2023-01-01T07:13:03.066Z,97885.47
2023-01-01T07:15:29.671Z,97880.28
2023-01-01T07:17:56.329Z,97892.75
2023-01-01T07:20:22.803Z,97907.44
2023-01-01T07:22:49.586Z,97917.81
2023-01-01T07:25:16.504Z,97921.22
2023-01-01T07:27:43.091Z,97924.19
2023-01-01T07:30:09.775Z,97917.78
2023-01-01T07:32:36.239Z,97940.81
2023-01-01T07:35:02.715Z,97938.44
2023-01-01T07:37:29.197Z,97945.81
2023-01-01T07:39:55.666Z,97951.16
2023-01-01T07:42:22.148Z,97961.03
2023-01-01T07:44:48.636Z,97960.13
2023-01-01T07:47:25.741Z,97952.38
2023-01-01T07:49:52.289Z,97946.59
2023-01-01T07:52:18.929Z,97955.28
2023-01-01T07:54:45.768Z,97957.22
2023-01-01T07:57:12.259Z,97944.84
2023-01-01T07:59:38.721Z,97951.81
2023-01-01T08:02:05.268Z,97968.66
2023-01-01T08:04:31.760Z,97963.91
2023-01-01T08:06:58.224Z,97967.06
2023-01-01T08:09:24.997Z,97962.63
2023-01-01T08:11:53.143Z,97969.00
2023-01-01T08:14:19.684Z,97970.88
2023-01-01T08:16:46.157Z,97963.41
2023-01-01T08:19:12.621Z,97987.25
2023-01-01T08:21:39.118Z,97980.50
2023-01-01T08:24:05.623Z,97983.72
2023-01-01T08:26:34.093Z,97995.47
2023-01-01T08:29:02.814Z,98000.72
2023-01-01T08:31:29.646Z,97997.50
2023-01-01T08:33:56.203Z,98003.59
2023-01-01T08:36:22.719Z,98008.66
2023-01-01T08:38:49.220Z,97989.84
2023-01-01T08:41:15.688Z,98004.41
2023-01-01T08:43:42.461Z,98017.47
2023-01-01T08:46:09.250Z,98013.06
2023-01-01T08:48:35.826Z,98015.22
2023-01-01T08:51:02.605Z,98026.69
2023-01-01T08:53:30.037Z,98031.94
2023-01-01T08:56:04.246Z,98039.28
2023-01-01T08:58:30.808Z,98044.13
2023-01-01T09:00:57.569Z,98043.31
2023-01-01T09:03:24.224Z,98041.31
2023-01-01T09:05:50.768Z,98048.09
2023-01-01T09:08:17.414Z,98049.41
2023-01-01T09:10:44.030Z,98057.91
2023-01-01T09:13:11.264Z,98071.03
2023-01-01T09:15:37.794Z,98063.19
2023-01-01T09:18:04.393Z,98073.88
2023-01-01T09:20:30.844Z,98077.78
2023-01-01T09:23:02.520Z,98078.72
2023-01-01T09:25:32.464Z,98078.66
2023-01-01T09:27:59.758Z,98096.59
2023-01-01T09:30:26.209Z,98102.28
2023-01-01T09:32:52.720Z,98099.66
2023-01-01T09:35:19.223Z,98095.09
2023-01-01T09:37:45.709Z,98097.63
2023-01-01T09:40:36.416Z,98103.44
2023-01-01T09:43:40.777Z,98098.16
2023-01-01T09:46:07.668Z,98107.38
2023-01-01T09:48:36.880Z,98121.31
2023-01-01T09:51:04.681Z,98123.72
2023-01-01T09:54:08.860Z,98133.47
2023-01-01T09:56:35.337Z,98120.44
2023-01-01T09:59:02.184Z,98122.91
2023-01-01T10:01:49.319Z,98135.69
2023-01-01T10:04:24.049Z,98129.22
2023-01-01T10:07:11.208Z,98133.53
2023-01-01T10:09:46.664Z,98132.06
2023-01-01T10:12:21.487Z,98157.91
2023-01-01T10:14:50.138Z,98164.56
2023-01-01T10:17:29.733Z,98151.50
2023-01-01T10:19:57.837Z,98139.19
2023-01-01T10:22:33.867Z,98133.25
2023-01-01T10:25:13.454Z,98150.56
2023-01-01T10:27:57.264Z,98145.78
2023-01-01T10:30:25.900Z,98145.44
2023-01-01T10:32:53.584Z,98144.00
2023-01-01T10:35:26.882Z,98140.44
2023-01-01T10:37:58.615Z,98159.78
2023-01-01T10:40:26.586Z,98151.19
2023-01-01T10:42:54.164Z,98149.00
2023-01-01T10:45:32.937Z,98133.03
2023-01-01T10:48:17.010Z,98154.09
2023-01-01T10:50:46.902Z,98148.94
2023-01-01T10:53:32.174Z,98156.91
2023-01-01T10:56:05.794Z,98160.44
2023-01-01T10:58:41.229Z,98149.66
2023-01-01T11:01:27.667Z,98149.06
2023-01-01T11:03:59.070Z,98162.78
2023-01-01T11:06:32.840Z,98165.78
2023-01-01T11:09:00.471Z,98152.03
2023-01-01T11:11:28.724Z,98137.19
2023-01-01T11:13:57.434Z,98143.44
2023-01-01T11:16:23.964Z,98150.25
2023-01-01T11:18:50.510Z,98154.50
2023-01-01T11:21:21.841Z,98158.19
2023-01-01T11:23:49.125Z,98165.13
2023-01-01T11:26:18.523Z,98158.78
2023-01-01T11:28:59.901Z,98153.72
2023-01-01T11:31:34.271Z,98147.97
2023-01-01T11:34:00.765Z,98132.38
2023-01-01T11:36:29.249Z,98124.41
2023-01-01T11:39:13.374Z,98119.78
2023-01-01T11:41:44.267Z,98129.88
2023-01-01T11:44:11.078Z,98121.88
2023-01-01T11:46:37.697Z,98104.72
2023-01-01T11:49:04.209Z,98108.28
2023-01-01T11:51:31.852Z,98108.72
2023-01-01T11:54:23.319Z,98101.59
2023-01-01T11:56:50.705Z,98111.06
2023-01-01T11:59:17.897Z,98122.84
2023-01-01T12:01:52.688Z,98118.50
2023-01-01T12:04:22.156Z,98131.25
2023-01-01T12:07:17.325Z,98132.22
2023-01-01T12:09:58.092Z,98126.53
2023-01-01T12:12:33.488Z,98138.47
2023-01-01T12:15:05.004Z,98138.31
2023-01-01T12:17:47.283Z,98147.94
2023-01-01T12:20:21.447Z,98135.97
2023-01-01T12:22:48.174Z,98149.28
2023-01-01T12:25:15.964Z,98154.88
2023-01-01T12:28:00.678Z,98157.78
2023-01-01T12:30:42.037Z,98150.59
2023-01-01T12:33:44.235Z,98170.53
2023-01-01T12:36:30.558Z,98145.25
2023-01-01T12:39:15.295Z,98168.06
2023-01-01T12:42:14.133Z,98162.19
2023-01-01T12:44:54.044Z,98156.53
2023-01-01T12:47:26.307Z,98159.34
2023-01-01T12:50:07.901Z,98161.09
2023-01-01T12:52:37.881Z,98155.44
2023-01-01T12:55:25.700Z,98158.97
2023-01-01T12:57:57.428Z,98159.50
2023-01-01T13:00:23.859Z,98165.34
2023-01-01T13:02:52.638Z,98167.63
2023-01-01T13:05:24.545Z,98156.84
2023-01-01T13:07:54.364Z,98162.34
2023-01-01T13:10:25.434Z,98158.56
2023-01-01T13:12:53.387Z,98161.19
2023-01-01T13:15:38.159Z,98166.16
2023-01-01T13:18:28.265Z,98163.81
2023-01-01T13:21:04.878Z,98174.97
2023-01-01T13:23:31.192Z,98177.19
2023-01-01T13:26:22.904Z,98174.03
2023-01-01T13:28:58.630Z,98179.09
2023-01-01T13:31:40.358Z,98174.88
2023-01-01T13:34:40.079Z,98169.78
2023-01-01T13:37:17.227Z,98173.06
2023-01-01T13:40:22.317Z,98178.91
2023-01-01T13:42:57.793Z,98167.06
2023-01-01T13:48:48.013Z,98177.69
2023-01-01T13:52:02.962Z,98167.06
2023-01-01T13:54:49.491Z,98179.28
2023-01-01T13:57:37.323Z,98172.19
2023-01-01T14:00:43.140Z,98177.31
2023-01-01T14:03:14.372Z,98190.78
2023-01-01T14:05:46.103Z,98194.53
2023-01-01T14:08:27.775Z,98192.47
2023-01-01T14:10:54.287Z,98196.28
2023-01-01T14:13:29.849Z,98198.63
2023-01-01T14:15:58.563Z,98204.13
2023-01-01T14:18:47.366Z,98203.25
2023-01-01T14:21:21.676Z,98217.03
2023-01-01T14:23:59.227Z,98209.72
2023-01-01T14:26:26.409Z,98211.84
2023-01-01T14:28:56.491Z,98221.97
2023-01-01T14:31:30.397Z,98212.94
2023-01-01T14:33:56.925Z,98220.03
2023-01-01T14:36:28.220Z,98203.28
2023-01-01T14:38:55.906Z,98214.25
2023-01-01T14:41:24.530Z,98218.88
2023-01-01T14:43:51.838Z,98221.91
2023-01-01T14:46:20.107Z,98226.00
2023-01-01T14:48:47.897Z,98231.44
2023-01-01T14:51:22.744Z,98221.47
2023-01-01T14:53:49.227Z,98222.94
2023-01-01T14:56:35.611Z,98220.22
2023-01-01T14:59:14.161Z,98211.44
2023-01-01T15:01:42.665Z,98218.84
2023-01-01T15:04:23.744Z,98213.56
2023-01-01T15:06:57.502Z,98213.78
2023-01-01T15:09:24.017Z,98210.66
2023-01-01T15:11:57.231Z,98215.63
2023-01-01T15:14:35.724Z,98217.25
2023-01-01T15:17:10.095Z,98225.44
2023-01-01T15:19:37.640Z,98224.06
2023-01-01T15:22:11.428Z,98233.00
2023-01-01T15:24:38.007Z,98240.97
2023-01-01T15:27:06.654Z,98238.63
2023-01-01T15:29:35.634Z,98246.44
2023-01-01T15:32:03.624Z,98249.03
2023-01-01T15:34:35.497Z,98245.97
2023-01-01T15:37:13.058Z,98246.78
2023-01-01T15:39:50.009Z,98251.63
2023-01-01T15:42:35.570Z,98247.69
2023-01-01T15:45:22.392Z,98256.31
2023-01-01T15:47:52.830Z,98261.31
2023-01-01T15:50:26.284Z,98259.84
2023-01-01T15:53:00.455Z,98255.91
2023-01-01T15:55:28.441Z,98253.91
2023-01-01T15:57:54.895Z,98250.97
2023-01-01T16:00:22.915Z,98254.03
2023-01-01T16:02:53.461Z,98252.41
2023-01-01T16:05:29.208Z,98255.66
2023-01-01T16:08:02.706Z,98259.06
2023-01-01T16:10:29.195Z,98256.84
2023-01-01T16:12:55.646Z,98243.22
2023-01-01T16:15:22.128Z,98256.88
2023-01-01T16:17:48.594Z,98252.38
2023-01-01T16:20:16.077Z,98245.66
2023-01-01T16:22:43.133Z,98245.84
2023-01-01T16:25:14.562Z,98256.22
2023-01-01T16:27:41.149Z,98250.59
2023-01-01T16:30:08.071Z,98242.69
2023-01-01T16:32:34.565Z,98245.94
2023-01-01T16:35:04.189Z,98234.81
2023-01-01T16:37:33.281Z,98235.00
2023-01-01T16:39:59.744Z,98251.19
2023-01-01T16:42:26.253Z,98244.06
2023-01-01T16:44:52.778Z,98252.72
2023-01-01T16:47:19.253Z,98240.72
2023-01-01T16:49:46.023Z,98250.03
2023-01-01T16:52:12.516Z,98260.31
2023-01-01T16:54:40.144Z,98256.84
2023-01-01T16:57:06.637Z,98261.19
2023-01-01T16:59:33.148Z,98263.41
2023-01-01T17:01:59.682Z,98259.19
2023-01-01T17:04:27.939Z,98274.88
2023-01-01T17:06:54.823Z,98264.13
2023-01-01T17:09:21.330Z,98258.75
2023-01-01T17:11:47.940Z,98268.06
2023-01-01T17:14:14.566Z,98266.09
2023-01-01T17:16:41.240Z,98266.00
2023-01-01T17:19:16.574Z,98268.75
2023-01-01T17:21:44.968Z,98274.94
2023-01-01T17:24:11.484Z,98275.06
2023-01-01T17:26:37.984Z,98271.22
2023-01-01T17:29:06.770Z,98266.06
2023-01-01T17:31:33.310Z,98271.94
2023-01-01T17:33:59.848Z,98265.22
2023-01-01T17:36:27.419Z,98272.78
2023-01-01T17:38:53.977Z,98275.00
2023-01-01T17:41:20.565Z,98281.41
2023-01-01T17:43:48.787Z,98276.34
2023-01-01T17:46:17.110Z,98287.16
2023-01-01T17:48:44.031Z,98276.91
2023-01-01T17:51:11.063Z,98276.34
2023-01-01T17:53:39.340Z,98271.19
2023-01-01T17:56:06.411Z,98273.00
2023-01-01T17:58:35.561Z,98264.75
2023-01-01T18:01:13.457Z,98265.03
2023-01-01T18:03:40.303Z,98261.31
2023-01-01T18:06:07.085Z,98261.88
2023-01-01T18:08:33.570Z,98261.75
2023-01-01T18:11:00.146Z,98257.84
2023-01-01T18:13:27.218Z,98257.47
2023-01-01T18:15:53.779Z,98257.97
2023-01-01T18:18:20.300Z,98256.84
2023-01-01T18:20:46.789Z,98265.44
2023-01-01T18:23:13.252Z,98253.66
2023-01-01T18:25:39.727Z,98258.19
2023-01-01T18:28:07.953Z,98249.56
2023-01-01T18:30:36.536Z,98245.81
2023-01-01T18:33:03.085Z,98245.59
2023-01-01T18:35:29.560Z,98233.00
2023-01-01T18:37:56.980Z,98228.84
2023-01-01T18:40:23.912Z,98233.88
2023-01-01T18:43:02.756Z,98240.91
2023-01-01T18:45:29.219Z,98236.69
2023-01-01T18:47:55.685Z,98241.19
2023-01-01T18:50:24.966Z,98238.06
2023-01-01T18:53:06.280Z,98231.25
2023-01-01T18:55:32.881Z,98237.50
2023-01-01T18:58:02.068Z,98230.75
2023-01-01T19:00:30.994Z,98233.69
2023-01-01T19:02:57.486Z,98227.69
2023-01-01T19:05:41.988Z,98228.38
2023-01-01T19:08:08.398Z,98227.44
2023-01-01T19:10:37.626Z,98224.28
2023-01-01T19:13:21.259Z,98223.56
2023-01-01T19:15:53.338Z,98217.91
2023-01-01T19:18:23.183Z,98219.75
2023-01-01T19:20:51.142Z,98216.00
2023-01-01T19:23:22.060Z,98204.19
2023-01-01T19:25:49.672Z,98209.19
2023-01-01T19:28:19.125Z,98208.91
2023-01-01T19:30:45.757Z,98219.44
2023-01-01T19:33:12.839Z,98224.75
2023-01-01T19:35:39.309Z,98218.84
2023-01-01T19:38:05.987Z,98221.41
2023-01-01T19:40:32.442Z,98213.31
2023-01-01T19:42:58.964Z,98211.97
2023-01-01T19:45:25.618Z,98213.81
2023-01-01T19:47:52.081Z,98216.13
2023-01-01T19:50:21.124Z,98216.56
2023-01-01T19:52:47.625Z,98214.75
2023-01-01T19:55:14.253Z,98208.34
2023-01-01T19:57:40.751Z,98219.59
2023-01-01T20:00:07.739Z,98228.63
2023-01-01T20:02:49.890Z,98234.28
2023-01-01T20:05:18.113Z,98228.72
2023-01-01T20:07:44.655Z,98231.94
2023-01-01T20:10:11.142Z,98232.53
2023-01-01T20:12:37.649Z,98229.13
2023-01-01T20:15:04.527Z,98233.25
2023-01-01T20:17:31.028Z,98241.72
2023-01-01T20:19:58.317Z,98245.66
2023-01-01T20:22:24.849Z,98245.66
2023-01-01T20:24:51.324Z,98237.91
2023-01-01T20:27:17.894Z,98237.44
2023-01-01T20:29:44.534Z,98247.72
2023-01-01T20:32:12.911Z,98244.84
2023-01-01T20:34:39.986Z,98236.53
2023-01-01T20:37:25.127Z,98241.50
2023-01-01T20:39:51.594Z,98233.53
2023-01-01T20:42:18.073Z,98220.81
2023-01-01T20:44:44.673Z,98230.88
2023-01-01T20:47:11.706Z,98224.97
2023-01-01T20:49:38.187Z,98224.63
2023-01-01T20:52:04.749Z,98212.03
2023-01-01T20:54:31.222Z,98202.09
2023-01-01T20:56:57.695Z,98207.84
2023-01-01T20:59:35.282Z,98198.81
2023-01-01T21:02:02.444Z,98188.06
2023-01-01T21:04:29.032Z,98185.66
2023-01-01T21:06:55.525Z,98176.09
2023-01-01T21:09:21.982Z,98175.16
2023-01-01T21:11:48.458Z,98177.13
2023-01-01T21:14:14.934Z,98172.63
2023-01-01T21:16:42.832Z,98177.44
2023-01-01T21:19:09.535Z,98174.19
2023-01-01T21:21:49.542Z,98161.13
2023-01-01T21:24:21.153Z,98146.09
2023-01-01T21:26:47.711Z,98150.50
2023-01-01T21:29:21.593Z,98149.34
2023-01-01T21:31:51.121Z,98134.06
2023-01-01T21:34:26.035Z,98139.63
2023-01-01T21:36:55.420Z,98132.81
2023-01-01T21:39:23.634Z,98126.56
2023-01-01T21:41:50.247Z,98128.06
2023-01-01T21:44:16.706Z,98116.16
2023-01-01T21:46:47.054Z,98113.50
2023-01-01T21:49:13.377Z,98110.00
2023-01-01T21:51:42.302Z,98098.09
2023-01-01T21:54:14.791Z,98104.22
2023-01-01T21:56:42.430Z,98103.50
2023-01-01T21:59:25.730Z,98092.41
2023-01-01T22:01:53.773Z,98082.94
2023-01-01T22:04:28.025Z,98073.34
2023-01-01T22:07:09.487Z,98073.09
2023-01-01T22:09:48.551Z,98073.00
2023-01-01T22:12:14.865Z,98077.03
2023-01-01T22:14:42.129Z,98088.22
2023-01-01T22:17:30.697Z,98074.88
2023-01-01T22:20:06.095Z,98061.81
2023-01-01T22:22:32.873Z,98062.97
2023-01-01T22:25:06.254Z,98055.72
2023-01-01T22:27:37.543Z,98054.47
2023-01-01T22:30:13.078Z,98060.47
2023-01-01T22:32:39.551Z,98061.28
2023-01-01T22:35:19.516Z,98061.28
2023-01-01T22:37:49.518Z,98060.03
2023-01-01T22:40:31.376Z,98058.84
2023-01-01T22:43:05.845Z,98046.97
2023-01-01T22:45:32.546Z,98047.31
2023-01-01T22:47:59.900Z,98061.88
2023-01-01T22:50:27.345Z,98049.44
2023-01-01T22:52:53.820Z,98036.38
2023-01-01T22:55:20.576Z,98047.31
2023-01-01T22:57:47.125Z,98049.28
2023-01-01T23:00:14.110Z,98045.34
2023-01-01T23:02:40.668Z,98047.31
2023-01-01T23:05:07.342Z,98052.75
2023-01-01T23:07:39.641Z,98038.19
2023-01-01T23:10:08.557Z,98047.75
2023-01-01T23:12:35.015Z,98037.03
2023-01-01T23:15:20.081Z,98037.03
2023-01-01T23:17:46.563Z,98028.59
2023-01-01T23:20:13.188Z,98037.38
2023-01-01T23:22:41.490Z,98012.94
2023-01-01T23:25:08.935Z,98018.13
2023-01-01T23:27:35.422Z,98015.38
2023-01-01T23:30:01.973Z,98019.31
2023-01-01T23:32:28.890Z,98010.63
2023-01-01T23:34:55.763Z,98016.19
2023-01-01T23:37:22.257Z,98012.69
2023-01-01T23:39:48.721Z,98003.56
2023-01-01T23:42:15.203Z,97995.75
2023-01-01T23:44:41.665Z,98000.78
2023-01-01T23:47:08.331Z,97993.06
2023-01-01T23:49:34.834Z,97983.66
2023-01-01T23:52:02.328Z,97982.94
2023-01-01T23:54:28.991Z,97966.50
2023-01-01T23:56:55.490Z,97965.78
2023-01-01T23:59:21.981Z,97953.63
